Terminal Aerodrome Forecast
Issued by NWS San Angelo, TX

Home | Current Version | Previous Version | Text Only | Print | Product List | Glossary On
Versions: 1 2 3 4 5 6 7 8 9 10 11 12 13 14 15 16 17 18 19 20
000
FTUS44 KSJT 190500
TAFSJT
TAF
KSJT 190534Z 1906/2006 05009KT P6SM BKN012
     FM190700 05008KT 6SM BR VCSH OVC007
     FM191300 02006KT 4SM BR OVC005
     FM191600 02005KT P6SM OVC012
     FM191900 03005KT P6SM BKN020
     FM192100 VRB04KT P6SM SCT025=

USA.gov is the U.S. government's official web portal to all federal, state and local government web resources and services.